createdAt,value
2019-04-07T00:00:12.179Z,6.84
2019-04-07T00:02:23.458Z,6.82
2019-04-07T00:04:34.289Z,6.78
2019-04-07T00:06:45.343Z,6.78
2019-04-07T00:08:56.553Z,6.76
2019-04-07T00:11:07.405Z,6.74
2019-04-07T00:13:18.401Z,6.74
2019-04-07T00:15:29.404Z,6.73
2019-04-07T00:17:40.309Z,6.71
2019-04-07T00:19:51.209Z,6.55
2019-04-07T00:22:02.083Z,6.40
2019-04-07T00:24:13.601Z,6.40
2019-04-07T00:26:27.145Z,6.43
2019-04-07T00:28:44.049Z,6.43
2019-04-07T00:30:54.978Z,6.46
2019-04-07T00:33:09.632Z,6.41
2019-04-07T00:35:26.855Z,6.37
2019-04-07T00:37:41.757Z,6.39
2019-04-07T00:39:53.258Z,6.40
2019-04-07T00:42:04.206Z,6.39
2019-04-07T00:44:15.604Z,6.43
2019-04-07T00:46:26.853Z,6.44
2019-04-07T00:48:37.763Z,6.44
2019-04-07T00:50:48.762Z,6.46
2019-04-07T00:53:00.222Z,6.51
2019-04-07T00:55:11.642Z,6.52
2019-04-07T00:57:35.386Z,6.55
2019-04-07T00:59:46.437Z,6.60
2019-04-07T01:01:57.960Z,6.66
2019-04-07T01:04:08.974Z,6.69
2019-04-07T01:06:19.773Z,6.70
2019-04-07T01:08:30.987Z,6.75
2019-04-07T01:10:42.703Z,6.81
2019-04-07T01:12:54.017Z,6.84
2019-04-07T01:15:07.665Z,6.82
2019-04-07T01:17:19.079Z,6.85
2019-04-07T01:19:30.037Z,6.93
2019-04-07T01:21:41.012Z,6.98
2019-04-07T01:23:54.401Z,7.03
2019-04-07T01:26:05.443Z,7.09
2019-04-07T01:28:16.468Z,7.07
2019-04-07T01:30:27.353Z,6.95
2019-04-07T01:32:38.856Z,6.77
2019-04-07T01:34:50.436Z,6.63
2019-04-07T01:37:01.366Z,6.43
2019-04-07T01:39:12.992Z,6.21
2019-04-07T01:41:31.798Z,6.21
2019-04-07T01:43:44.727Z,6.16
2019-04-07T01:46:01.045Z,6.14
2019-04-07T01:48:16.881Z,6.08
2019-04-07T01:50:40.759Z,6.06
2019-04-07T01:53:08.953Z,6.06
2019-04-07T01:55:38.946Z,6.15
2019-04-07T01:58:04.022Z,6.12
2019-04-07T02:00:29.869Z,6.08
2019-04-07T02:02:52.012Z,6.00
2019-04-07T02:05:11.104Z,5.97
2019-04-07T02:07:35.928Z,5.98
2019-04-07T02:09:51.434Z,5.96
2019-04-07T02:12:16.078Z,5.94
2019-04-07T02:14:41.154Z,5.90
2019-04-07T02:16:59.897Z,5.90
2019-04-07T02:19:15.402Z,5.80
2019-04-07T02:21:44.983Z,5.72
2019-04-07T02:24:04.782Z,5.72
2019-04-07T02:26:34.600Z,5.72
2019-04-07T02:28:50.407Z,5.66
2019-04-07T02:31:21.126Z,5.59
2019-04-07T02:33:34.967Z,5.55
2019-04-07T02:36:17.118Z,5.47
2019-04-07T02:38:25.104Z,5.47
2019-04-07T02:40:55.727Z,5.45
2019-04-07T02:43:25.343Z,5.46
2019-04-07T02:45:38.368Z,5.43
2019-04-07T02:47:57.746Z,5.38
2019-04-07T02:50:14.163Z,5.37
2019-04-07T02:52:30.847Z,5.35
2019-04-07T02:54:44.567Z,5.32
2019-04-07T02:56:57.312Z,5.27
2019-04-07T02:59:10.140Z,5.25
2019-04-07T03:01:23.000Z,5.23
2019-04-07T03:03:39.501Z,5.21
2019-04-07T03:06:10.049Z,5.25
2019-04-07T03:08:38.267Z,5.25
2019-04-07T03:11:02.214Z,5.16
2019-04-07T03:13:21.248Z,5.14
2019-04-07T03:15:51.238Z,5.17
2019-04-07T03:18:07.008Z,5.12
2019-04-07T03:20:29.596Z,5.12
2019-04-07T03:23:00.221Z,5.17
2019-04-07T03:25:19.171Z,5.15
2019-04-07T03:27:48.766Z,5.08
2019-04-07T03:30:01.757Z,5.04
2019-04-07T03:32:33.801Z,5.06
2019-04-07T03:34:51.345Z,5.12
2019-04-07T03:37:23.963Z,5.17
2019-04-07T03:39:27.028Z,5.22
2019-04-07T03:41:45.881Z,5.21
2019-04-07T03:43:59.244Z,5.15
2019-04-07T03:46:12.210Z,5.07
2019-04-07T03:48:37.001Z,4.91
2019-04-07T03:51:09.133Z,4.89
2019-04-07T03:53:24.362Z,4.88
2019-04-07T03:55:40.903Z,4.88
2019-04-07T03:58:00.179Z,4.93
2019-04-07T04:00:39.631Z,4.94
2019-04-07T04:02:52.632Z,4.92
2019-04-07T04:05:12.439Z,4.77
2019-04-07T04:07:31.444Z,4.70
2019-04-07T04:09:45.895Z,4.75
2019-04-07T04:11:58.781Z,4.81
2019-04-07T04:14:12.027Z,4.85
2019-04-07T04:16:23.460Z,4.90
2019-04-07T04:18:35.138Z,4.87
2019-04-07T04:20:46.403Z,4.85
2019-04-07T04:22:58.238Z,4.81
2019-04-07T04:25:10.550Z,4.80
2019-04-07T04:27:21.670Z,4.77
2019-04-07T04:29:33.231Z,4.76
2019-04-07T04:31:44.285Z,4.73
2019-04-07T04:33:55.645Z,4.72
2019-04-07T04:36:06.695Z,4.71
2019-04-07T04:38:20.526Z,4.75
2019-04-07T04:40:32.306Z,4.84
2019-04-07T04:42:44.316Z,4.90
2019-04-07T04:44:55.559Z,4.95
2019-04-07T04:47:06.545Z,4.89
2019-04-07T04:49:17.393Z,4.74
2019-04-07T04:51:29.480Z,4.70
2019-04-07T04:53:40.478Z,4.70
2019-04-07T04:55:51.534Z,4.75
2019-04-07T04:58:02.432Z,4.80
2019-04-07T05:00:13.586Z,4.82
2019-04-07T05:02:24.503Z,4.85
2019-04-07T05:04:35.585Z,4.95
2019-04-07T05:06:46.561Z,5.08
2019-04-07T05:08:57.767Z,5.24
2019-04-07T05:11:09.149Z,5.45
2019-04-07T05:13:20.121Z,5.72
2019-04-07T05:15:32.932Z,6.02
2019-04-07T05:17:43.794Z,6.30
2019-04-07T05:19:54.994Z,6.53
2019-04-07T05:22:06.093Z,6.76
2019-04-07T05:24:16.972Z,6.88
2019-04-07T05:26:27.881Z,7.04
2019-04-07T05:28:38.918Z,7.17
2019-04-07T05:30:50.376Z,7.33
2019-04-07T05:33:01.238Z,7.44
2019-04-07T05:35:12.128Z,7.48
2019-04-07T05:37:23.062Z,7.55
2019-04-07T05:39:33.922Z,7.68
2019-04-07T05:41:45.069Z,7.90
2019-04-07T05:43:55.950Z,8.06
2019-04-07T05:46:08.007Z,7.94
2019-04-07T05:48:20.544Z,7.74
2019-04-07T05:50:31.854Z,7.63
2019-04-07T05:52:43.298Z,7.63
2019-04-07T05:54:54.541Z,7.67
2019-04-07T05:57:07.449Z,7.70
2019-04-07T05:59:18.317Z,7.77
2019-04-07T06:01:29.150Z,7.83
2019-04-07T06:03:42.832Z,7.91
2019-04-07T06:05:52.887Z,8.00
2019-04-07T06:08:21.279Z,8.05
2019-04-07T06:10:16.768Z,8.11
2019-04-07T06:12:27.560Z,8.18
2019-04-07T06:14:39.116Z,8.26
2019-04-07T06:16:53.532Z,8.27
2019-04-07T06:19:05.428Z,8.24
2019-04-07T06:21:16.239Z,8.22
2019-04-07T06:23:29.828Z,8.17
2019-04-07T06:25:42.348Z,8.12
2019-04-07T06:27:54.291Z,8.15
2019-04-07T06:30:08.445Z,8.18
2019-04-07T06:32:19.392Z,8.25
2019-04-07T06:34:30.330Z,8.37
2019-04-07T06:36:41.264Z,8.53
2019-04-07T06:38:52.895Z,8.61
2019-04-07T06:41:04.692Z,8.73
2019-04-07T06:43:15.722Z,8.90
2019-04-07T06:45:28.535Z,9.28
2019-04-07T06:47:53.528Z,9.46
2019-04-07T06:50:15.407Z,9.61
2019-04-07T06:52:35.458Z,9.79
2019-04-07T06:54:56.206Z,9.95
2019-04-07T06:57:21.353Z,10.02
2019-04-07T06:59:34.123Z,10.20
2019-04-07T07:01:50.228Z,10.42
2019-04-07T07:04:03.195Z,10.61
2019-04-07T07:06:24.138Z,10.67
2019-04-07T07:08:45.842Z,10.74
2019-04-07T07:11:24.663Z,10.91
2019-04-07T07:13:34.265Z,10.95
2019-04-07T07:15:58.519Z,11.09
2019-04-07T07:18:19.976Z,11.30
2019-04-07T07:20:41.470Z,11.67
2019-04-07T07:23:00.780Z,12.31
2019-04-07T07:25:12.395Z,12.81
2019-04-07T07:27:24.128Z,12.88
2019-04-07T07:29:36.976Z,12.81
2019-04-07T07:31:48.891Z,12.68
2019-04-07T07:34:00.964Z,13.05
2019-04-07T07:36:12.384Z,13.27
2019-04-07T07:38:23.349Z,13.55
2019-04-07T07:40:35.119Z,13.72
2019-04-07T07:42:49.023Z,13.75
2019-04-07T07:44:59.018Z,13.70
2019-04-07T07:47:10.281Z,13.67
2019-04-07T07:49:21.427Z,13.96
2019-04-07T07:51:32.386Z,14.55
2019-04-07T07:53:43.254Z,15.07
2019-04-07T07:55:54.389Z,15.53
2019-04-07T07:58:05.247Z,16.02
2019-04-07T08:00:16.971Z,16.52
2019-04-07T08:02:29.836Z,16.89
2019-04-07T08:04:40.699Z,17.31
2019-04-07T08:06:52.201Z,17.53
2019-04-07T08:09:11.993Z,17.59
2019-04-07T08:11:18.762Z,17.71
2019-04-07T08:13:30.005Z,17.65
2019-04-07T08:15:41.588Z,17.55
2019-04-07T08:17:53.127Z,17.71
2019-04-07T08:20:05.681Z,17.98
2019-04-07T08:22:27.659Z,18.32
2019-04-07T08:24:29.441Z,18.43
2019-04-07T08:26:40.479Z,18.34
2019-04-07T08:28:51.473Z,18.38
2019-04-07T08:31:02.556Z,18.87
2019-04-07T08:33:13.431Z,18.87
2019-04-07T08:35:24.390Z,18.83
2019-04-07T08:37:36.381Z,18.57
2019-04-07T08:39:47.547Z,18.55
2019-04-07T08:41:59.392Z,18.64
2019-04-07T08:44:10.521Z,18.98
2019-04-07T08:46:21.904Z,19.47
2019-04-07T08:48:33.309Z,19.70
2019-04-07T08:50:44.378Z,19.84
2019-04-07T08:52:55.465Z,20.06
2019-04-07T08:55:07.315Z,20.08
2019-04-07T08:57:18.352Z,20.19
2019-04-07T08:59:29.285Z,20.38
2019-04-07T09:01:40.489Z,20.52
2019-04-07T09:03:51.904Z,20.39
2019-04-07T09:06:04.620Z,20.26
2019-04-07T09:08:16.065Z,19.97
2019-04-07T09:10:38.233Z,19.63
2019-04-07T09:12:49.874Z,19.48
2019-04-07T09:15:03.953Z,19.43
2019-04-07T09:17:32.177Z,19.40
2019-04-07T09:19:42.412Z,19.41
2019-04-07T09:22:01.016Z,19.40
2019-04-07T09:24:32.229Z,19.33
2019-04-07T09:26:47.791Z,19.33
2019-04-07T09:29:00.811Z,19.13
2019-04-07T09:31:19.646Z,18.80
2019-04-07T09:33:34.790Z,18.60
2019-04-07T09:35:47.606Z,18.31
2019-04-07T09:38:00.496Z,18.19
2019-04-07T09:40:17.427Z,18.09
2019-04-07T09:42:29.059Z,17.86
2019-04-07T09:44:53.926Z,17.57
2019-04-07T09:47:15.791Z,17.36
2019-04-07T09:49:32.962Z,17.27
2019-04-07T09:51:46.206Z,17.13
2019-04-07T09:54:17.642Z,16.96
2019-04-07T09:56:46.148Z,16.81
2019-04-07T09:59:19.053Z,16.78
2019-04-07T10:01:44.562Z,16.68
2019-04-07T10:04:03.256Z,16.64
2019-04-07T10:06:32.585Z,16.72
2019-04-07T10:08:48.066Z,16.84
2019-04-07T10:11:00.805Z,17.01
2019-04-07T10:13:13.622Z,17.10
2019-04-07T10:15:42.062Z,17.20
2019-04-07T10:18:11.603Z,17.22
2019-04-07T10:20:40.876Z,17.21
2019-04-07T10:23:10.817Z,17.21
2019-04-07T10:25:30.123Z,17.17
2019-04-07T10:27:52.113Z,17.12
2019-04-07T10:30:08.019Z,17.08
2019-04-07T10:32:23.833Z,17.09
2019-04-07T10:34:46.059Z,17.18
2019-04-07T10:37:08.099Z,17.42
2019-04-07T10:39:21.003Z,17.73
2019-04-07T10:41:37.147Z,17.95
2019-04-07T10:44:08.497Z,18.28
2019-04-07T10:46:21.572Z,18.55
2019-04-07T10:48:34.448Z,18.83
2019-04-07T10:50:50.248Z,19.01
2019-04-07T10:53:03.782Z,19.23
2019-04-07T10:55:20.601Z,19.19
2019-04-07T10:57:52.423Z,19.31
2019-04-07T11:00:25.832Z,19.47
2019-04-07T11:02:39.300Z,19.45
2019-04-07T11:04:55.271Z,19.38
2019-04-07T11:07:10.973Z,19.44
2019-04-07T11:09:30.008Z,19.63
2019-04-07T11:11:58.793Z,19.82
2019-04-07T11:14:26.986Z,19.86
2019-04-07T11:16:46.406Z,19.77
2019-04-07T11:19:05.589Z,19.54
2019-04-07T11:21:30.483Z,19.16
2019-04-07T11:23:46.866Z,18.96
2019-04-07T11:26:08.861Z,19.04
2019-04-07T11:28:30.645Z,19.02
2019-04-07T11:31:00.481Z,19.07
2019-04-07T11:33:30.143Z,19.02
2019-04-07T11:35:59.619Z,19.06
2019-04-07T11:38:21.299Z,18.94
2019-04-07T11:40:44.039Z,18.71
2019-04-07T11:42:49.081Z,18.79
2019-04-07T11:45:08.214Z,18.85
2019-04-07T11:47:36.418Z,18.71
2019-04-07T11:50:01.431Z,18.89
2019-04-07T11:52:14.798Z,19.13
2019-04-07T11:54:27.730Z,19.31
2019-04-07T11:56:41.544Z,19.38
2019-04-07T11:59:03.446Z,19.38
2019-04-07T12:01:22.859Z,19.42
2019-04-07T12:03:48.008Z,19.45
2019-04-07T12:06:03.690Z,19.55
2019-04-07T12:08:24.559Z,19.49
2019-04-07T12:10:58.551Z,19.45
2019-04-07T12:13:04.738Z,19.50
2019-04-07T12:15:34.717Z,19.64
2019-04-07T12:17:47.663Z,19.52
2019-04-07T12:20:09.661Z,19.55
2019-04-07T12:22:42.603Z,19.57
2019-04-07T12:25:03.256Z,19.56
2019-04-07T12:27:34.584Z,19.67
2019-04-07T12:30:04.345Z,19.64
2019-04-07T12:32:23.862Z,19.67
2019-04-07T12:34:55.109Z,19.57
2019-04-07T12:37:08.037Z,19.77
2019-04-07T12:39:34.971Z,19.72
2019-04-07T12:42:07.135Z,19.55
2019-04-07T12:44:20.098Z,19.37
2019-04-07T12:46:36.453Z,19.27
2019-04-07T12:49:08.461Z,19.24
2019-04-07T12:51:37.578Z,19.08
2019-04-07T12:54:07.037Z,18.95
2019-04-07T12:56:23.143Z,18.99
2019-04-07T12:58:52.789Z,19.16
2019-04-07T13:01:21.173Z,19.27
2019-04-07T13:03:34.444Z,19.17
2019-04-07T13:06:06.383Z,19.08
2019-04-07T13:08:22.510Z,19.00
2019-04-07T13:10:42.954Z,18.93
2019-04-07T13:13:02.618Z,18.85
2019-04-07T13:15:19.365Z,18.71
2019-04-07T13:17:49.476Z,18.65
2019-04-07T13:20:08.337Z,18.71
2019-04-07T13:22:21.549Z,18.61
2019-04-07T13:24:45.469Z,18.50
2019-04-07T13:27:06.045Z,18.47
2019-04-07T13:29:24.840Z,18.58
2019-04-07T13:31:40.426Z,18.55
2019-04-07T13:33:53.399Z,18.60
2019-04-07T13:36:13.515Z,18.64
2019-04-07T13:38:26.325Z,18.74
2019-04-07T13:40:57.611Z,18.76
2019-04-07T13:43:11.143Z,18.64
2019-04-07T13:45:44.668Z,18.72
2019-04-07T13:47:55.715Z,18.76
2019-04-07T13:50:14.715Z,18.86
2019-04-07T13:52:41.516Z,18.86
2019-04-07T13:54:54.764Z,18.82
2019-04-07T13:57:13.426Z,18.75
2019-04-07T13:59:44.092Z,18.66
2019-04-07T14:01:55.859Z,18.63
2019-04-07T14:04:08.927Z,18.60
2019-04-07T14:06:34.012Z,18.63
2019-04-07T14:09:04.164Z,18.62
2019-04-07T14:11:17.624Z,18.58
2019-04-07T14:13:35.665Z,18.48
2019-04-07T14:15:54.134Z,18.39
2019-04-07T14:18:19.215Z,18.38
2019-04-07T14:20:31.958Z,18.28
2019-04-07T14:22:47.733Z,18.15
2019-04-07T14:25:10.141Z,18.18
2019-04-07T14:27:26.343Z,18.14
2019-04-07T14:29:39.513Z,18.14
2019-04-07T14:31:55.574Z,18.09
2019-04-07T14:34:08.527Z,18.07
2019-04-07T14:36:25.015Z,18.14
2019-04-07T14:38:47.655Z,18.08
2019-04-07T14:41:15.951Z,18.00
2019-04-07T14:43:29.853Z,17.88
2019-04-07T14:45:58.026Z,17.82
2019-04-07T14:48:13.753Z,17.74
2019-04-07T14:50:33.152Z,17.70
2019-04-07T14:55:35.674Z,17.59
2019-04-07T14:58:04.506Z,17.48
2019-04-07T15:00:32.830Z,17.42
2019-04-07T15:02:44.437Z,17.38
2019-04-07T15:05:00.243Z,17.35
2019-04-07T15:07:30.021Z,17.35
2019-04-07T15:09:48.789Z,17.35
2019-04-07T15:12:14.761Z,17.31
2019-04-07T15:14:17.036Z,17.32
2019-04-07T15:16:28.559Z,17.27
2019-04-07T15:18:40.012Z,17.26
2019-04-07T15:20:51.667Z,17.26
2019-04-07T15:23:02.910Z,17.23
2019-04-07T15:25:13.905Z,17.23
2019-04-07T15:27:25.831Z,17.23
2019-04-07T15:29:41.342Z,17.21
2019-04-07T15:31:51.613Z,17.18
2019-04-07T15:34:06.506Z,17.17
2019-04-07T15:36:18.713Z,17.19
2019-04-07T15:38:28.640Z,17.15
2019-04-07T15:40:39.724Z,17.17
2019-04-07T15:42:51.153Z,17.18
2019-04-07T15:45:04.898Z,17.15
2019-04-07T15:47:16.883Z,17.13
2019-04-07T15:49:29.214Z,17.12
2019-04-07T15:51:41.632Z,17.14
2019-04-07T15:53:53.242Z,17.15
2019-04-07T15:56:06.560Z,17.11
2019-04-07T15:58:17.173Z,17.12
2019-04-07T16:00:28.328Z,17.07
2019-04-07T16:02:42.171Z,17.06
2019-04-07T16:04:52.420Z,17.09
2019-04-07T16:07:03.564Z,17.08
2019-04-07T16:09:29.611Z,17.08
2019-04-07T16:11:29.412Z,17.09
2019-04-07T16:13:40.252Z,17.10
2019-04-07T16:15:55.204Z,17.06
2019-04-07T16:18:07.633Z,17.03
2019-04-07T16:20:24.524Z,17.01
2019-04-07T16:22:31.994Z,16.97
2019-04-07T16:24:42.903Z,16.97
2019-04-07T16:26:54.652Z,16.93
2019-04-07T16:29:07.781Z,16.90
2019-04-07T16:31:19.834Z,16.92
2019-04-07T16:33:34.697Z,16.89
2019-04-07T16:35:49.060Z,16.93
2019-04-07T16:37:58.406Z,16.91
2019-04-07T16:40:10.795Z,16.90
2019-04-07T16:42:22.566Z,16.88
2019-04-07T16:44:36.381Z,16.89
2019-04-07T16:46:46.212Z,16.85
2019-04-07T16:48:58.463Z,16.82
2019-04-07T16:51:09.761Z,16.79
2019-04-07T16:53:20.641Z,16.79
2019-04-07T16:55:34.935Z,16.77
2019-04-07T16:57:46.238Z,16.73
2019-04-07T16:59:58.341Z,16.71
2019-04-07T17:02:10.247Z,16.69
2019-04-07T17:04:21.314Z,16.62
2019-04-07T17:06:35.633Z,16.60
2019-04-07T17:08:45.443Z,16.58
2019-04-07T17:10:56.402Z,16.57
2019-04-07T17:13:16.998Z,16.53
2019-04-07T17:15:21.149Z,16.50
2019-04-07T17:17:32.563Z,16.48
2019-04-07T17:19:43.689Z,16.44
2019-04-07T17:21:55.470Z,16.44
2019-04-07T17:24:07.596Z,16.40
2019-04-07T17:26:20.387Z,16.38
2019-04-07T17:28:32.413Z,16.34
2019-04-07T17:30:45.243Z,16.34
2019-04-07T17:32:56.602Z,16.33
2019-04-07T17:35:08.316Z,16.33
2019-04-07T17:37:20.055Z,16.31
2019-04-07T17:39:45.071Z,16.28
2019-04-07T17:41:57.632Z,16.23
2019-04-07T17:44:23.024Z,16.19
2019-04-07T17:46:37.237Z,16.19
2019-04-07T17:48:56.757Z,16.16
2019-04-07T17:51:13.920Z,16.15
2019-04-07T17:53:26.719Z,16.14
2019-04-07T17:55:57.241Z,16.11
2019-04-07T17:58:22.172Z,16.09
2019-04-07T18:00:53.274Z,16.02
2019-04-07T18:03:24.360Z,16.00
2019-04-07T18:05:40.704Z,15.98
2019-04-07T18:07:59.923Z,15.91
2019-04-07T18:10:22.540Z,15.88
2019-04-07T18:12:49.776Z,15.85
2019-04-07T18:15:07.148Z,15.84
2019-04-07T18:17:32.223Z,15.81
2019-04-07T18:19:51.474Z,15.78
2019-04-07T18:22:23.546Z,15.82
2019-04-07T18:24:48.747Z,15.79
2019-04-07T18:27:01.962Z,15.51
2019-04-07T18:29:14.778Z,15.41
2019-04-07T18:31:27.515Z,15.37
2019-04-07T18:33:50.145Z,15.35
2019-04-07T18:36:05.010Z,15.34
2019-04-07T18:38:33.094Z,15.30
2019-04-07T18:41:08.142Z,15.26
2019-04-07T18:43:23.404Z,15.14
2019-04-07T18:45:45.929Z,15.08
2019-04-07T18:47:58.158Z,15.02
2019-04-07T18:50:12.183Z,14.99
2019-04-07T18:52:34.229Z,14.96
2019-04-07T18:54:50.044Z,14.93
2019-04-07T18:57:05.780Z,14.88
2019-04-07T18:59:23.171Z,14.82
2019-04-07T19:01:39.516Z,14.81
2019-04-07T19:04:10.236Z,14.78
2019-04-07T19:06:26.018Z,14.77
2019-04-07T19:08:58.847Z,14.73
2019-04-07T19:11:24.322Z,14.67
2019-04-07T19:13:37.305Z,14.58
2019-04-07T19:15:51.142Z,14.54
2019-04-07T19:18:16.260Z,14.51
2019-04-07T19:20:38.332Z,14.45
2019-04-07T19:23:02.400Z,14.41
2019-04-07T19:25:21.623Z,14.41
2019-04-07T19:27:46.092Z,14.41
2019-04-07T19:30:13.863Z,14.44
2019-04-07T19:32:25.656Z,14.44
2019-04-07T19:34:47.426Z,14.44
2019-04-07T19:37:17.969Z,14.47
2019-04-07T19:39:38.859Z,14.48
2019-04-07T19:42:09.028Z,14.50
2019-04-07T19:44:35.768Z,14.54
2019-04-07T19:47:00.060Z,14.51
2019-04-07T19:49:15.642Z,14.54
2019-04-07T19:51:29.260Z,14.55
2019-04-07T19:53:44.225Z,14.50
2019-04-07T19:56:13.044Z,14.51
2019-04-07T19:58:39.861Z,14.46
2019-04-07T20:00:56.854Z,14.39
2019-04-07T20:03:13.360Z,14.38
2019-04-07T20:05:43.163Z,14.35
2019-04-07T20:07:56.150Z,14.29
2019-04-07T20:10:27.003Z,14.26
2019-04-07T20:12:52.612Z,14.24
2019-04-07T20:15:18.294Z,14.16
2019-04-07T20:17:45.326Z,14.14
2019-04-07T20:19:58.149Z,14.09
2019-04-07T20:22:24.982Z,13.99
2019-04-07T20:24:38.459Z,13.97
2019-04-07T20:27:08.813Z,13.99
2019-04-07T20:29:21.637Z,13.92
2019-04-07T20:31:40.786Z,13.95
2019-04-07T20:34:11.866Z,13.87
2019-04-07T20:36:26.400Z,13.82
2019-04-07T20:38:40.175Z,13.81
2019-04-07T20:40:59.644Z,13.78
2019-04-07T20:43:15.250Z,13.75
2019-04-07T20:45:37.045Z,13.71
2019-04-07T20:48:07.286Z,13.70
2019-04-07T20:50:20.125Z,13.70
2019-04-07T20:52:50.186Z,13.63
2019-04-07T20:55:21.169Z,13.62
2019-04-07T20:57:54.033Z,13.60
2019-04-07T21:00:16.545Z,13.61
2019-04-07T21:02:34.051Z,13.63
2019-04-07T21:05:05.211Z,13.63
2019-04-07T21:07:18.548Z,13.61
2019-04-07T21:09:43.837Z,13.57
2019-04-07T21:12:15.165Z,13.52
2019-04-07T21:14:45.326Z,13.56
2019-04-07T21:17:02.413Z,13.54
2019-04-07T21:19:18.789Z,13.51
2019-04-07T21:21:32.417Z,13.49
2019-04-07T21:23:47.132Z,13.47
2019-04-07T21:26:01.546Z,13.48
2019-04-07T21:28:14.295Z,13.45
2019-04-07T21:30:36.788Z,13.47
2019-04-07T21:33:05.177Z,13.48
2019-04-07T21:35:21.337Z,13.40
2019-04-07T21:37:51.932Z,13.39
2019-04-07T21:40:22.972Z,13.33
2019-04-07T21:42:36.040Z,13.29
2019-04-07T21:44:48.971Z,13.27
2019-04-07T21:47:04.458Z,13.33
2019-04-07T21:49:17.488Z,13.24
2019-04-07T21:51:39.842Z,13.24
2019-04-07T21:54:02.200Z,13.21
2019-04-07T21:56:15.817Z,13.22
2019-04-07T21:58:34.576Z,13.25
2019-04-07T22:00:51.076Z,13.22
2019-04-07T22:03:15.825Z,13.16
2019-04-07T22:05:28.697Z,13.13
2019-04-07T22:07:53.621Z,13.08
2019-04-07T22:10:10.020Z,13.07
2019-04-07T22:12:25.692Z,13.08
2019-04-07T22:14:37.452Z,13.09
2019-04-07T22:16:47.126Z,13.02
2019-04-07T22:18:58.794Z,12.96
2019-04-07T22:21:09.805Z,12.94
2019-04-07T22:23:21.573Z,12.96
2019-04-07T22:25:38.338Z,12.95
2019-04-07T22:27:49.224Z,12.93
2019-04-07T22:30:02.181Z,12.89
2019-04-07T22:32:17.474Z,12.84
2019-04-07T22:34:29.792Z,12.79
2019-04-07T22:36:39.168Z,12.81
2019-04-07T22:38:54.406Z,12.77
2019-04-07T22:41:06.707Z,12.78
2019-04-07T22:43:17.062Z,12.77
2019-04-07T22:45:30.248Z,12.77
2019-04-07T22:47:41.568Z,12.72
2019-04-07T22:49:52.726Z,12.69
2019-04-07T22:52:03.788Z,12.69
2019-04-07T22:54:14.734Z,12.61
2019-04-07T22:56:25.691Z,12.59
2019-04-07T22:58:38.452Z,12.58
2019-04-07T23:00:50.610Z,12.61
2019-04-07T23:03:03.718Z,12.63
2019-04-07T23:05:14.817Z,12.61
2019-04-07T23:07:25.769Z,12.61
2019-04-07T23:09:37.008Z,12.63
2019-04-07T23:11:48.227Z,12.66
2019-04-07T23:13:59.392Z,12.61
2019-04-07T23:16:13.868Z,12.63
2019-04-07T23:18:22.993Z,12.57
2019-04-07T23:20:33.953Z,12.59
2019-04-07T23:22:44.861Z,12.57
2019-04-07T23:24:55.744Z,12.60
2019-04-07T23:27:06.589Z,12.52
2019-04-07T23:29:17.719Z,12.54
2019-04-07T23:31:30.691Z,12.58
2019-04-07T23:33:41.821Z,12.54
2019-04-07T23:35:53.302Z,12.52
2019-04-07T23:38:04.275Z,12.50
2019-04-07T23:40:16.229Z,12.54
2019-04-07T23:42:29.079Z,12.55
2019-04-07T23:44:39.964Z,12.52
2019-04-07T23:46:50.948Z,12.52
2019-04-07T23:49:01.837Z,12.52
2019-04-07T23:51:12.698Z,12.48
2019-04-07T23:54:02.256Z,12.49
2019-04-07T23:56:13.221Z,12.49
2019-04-07T23:58:25.037Z,12.51
